Time;durP1;ratioP1;P1;durP2;ratioP2;P2;SDS_P1;SDS_P2;PMS_P1;PMS_P2;Temp;Humidity;BMP_temperature;BMP_pressure;BME280_temperature;BME280_humidity;BME280_pressure;Samples;Min_cycle;Max_cycle;Signal;HPM_P1;HPM_P2
2023/05/04 00:00:11;;;;;;;6.30;2.85;;;;;;;;;;5095471;28;20256;-47
2023/05/04 00:02:58;;;;;;;3.50;2.15;;;;;;;;;;5094782;28;20199;-48
2023/05/04 00:05:25;;;;;;;3.65;2.20;;;;;;;;;;5095341;28;20210;-48
2023/05/04 00:07:52;;;;;;;5.25;2.38;;;;;;;;;;5095086;28;20246;-47
2023/05/04 00:10:20;;;;;;;4.28;2.67;;;;;;;;;;5094921;28;20296;-48
2023/05/04 00:12:47;;;;;;;3.50;2.17;;;;;;;;;;5095003;28;20566;-49
2023/05/04 00:15:15;;;;;;;4.13;2.03;;;;;;;;;;5094899;28;20655;-48
2023/05/04 00:17:42;;;;;;;10.43;3.85;;;;;;;;;;5095001;28;20202;-50
2023/05/04 00:20:10;;;;;;;8.65;4.00;;;;;;;;;;5094672;28;20664;-49
2023/05/04 00:22:37;;;;;;;7.22;3.45;;;;;;;;;;5094892;28;20203;-48
2023/05/04 00:25:05;;;;;;;7.50;3.97;;;;;;;;;;5094713;28;20252;-47
2023/05/04 00:27:33;;;;;;;6.28;3.35;;;;;;;;;;5094903;28;20246;-48
2023/05/04 00:30:01;;;;;;;4.00;2.53;;;;;;;;;;5093582;28;20199;-48
2023/05/04 00:32:29;;;;;;;3.42;2.65;;;;;;;;;;5093726;28;20207;-48
2023/05/04 00:34:58;;;;;;;4.63;3.42;;;;;;;;;;5094759;28;20203;-48
2023/05/04 00:37:25;;;;;;;6.47;2.83;;;;;;;;;;5094570;28;20697;-50
2023/05/04 00:39:52;;;;;;;3.15;1.75;;;;;;;;;;5094473;28;20237;-49
2023/05/04 00:42:19;;;;;;;2.63;1.63;;;;;;;;;;5093511;28;20206;-48
2023/05/04 00:44:46;;;;;;;4.68;1.90;;;;;;;;;;5094620;28;20207;-48
2023/05/04 00:47:15;;;;;;;4.82;2.53;;;;;;;;;;5094276;28;20203;-48
2023/05/04 00:49:43;;;;;;;5.65;3.10;;;;;;;;;;5093162;28;20207;-48
2023/05/04 00:52:10;;;;;;;5.90;3.38;;;;;;;;;;5094529;28;20214;-48
2023/05/04 00:54:38;;;;;;;10.55;7.63;;;;;;;;;;5076380;28;20199;-48
2023/05/04 00:57:05;;;;;;;5.97;4.30;;;;;;;;;;5093305;28;20260;-47
2023/05/04 00:59:32;;;;;;;4.13;2.08;;;;;;;;;;5076205;28;20218;-48
2023/05/04 01:01:59;;;;;;;4.60;2.72;;;;;;;;;;5093040;28;20293;-48
2023/05/04 01:04:27;;;;;;;3.53;1.90;;;;;;;;;;5094040;28;20203;-47
2023/05/04 01:06:59;;;;;;;2.92;1.90;;;;;;;;;;5093879;28;20206;-46
2023/05/04 01:09:40;;;;;;;3.45;2.22;;;;;;;;;;5094155;28;20347;-49
2023/05/04 01:12:12;;;;;;;3.92;2.20;;;;;;;;;;5093103;28;20179;-48
2023/05/04 01:14:39;;;;;;;4.15;2.00;;;;;;;;;;5092875;28;20233;-49
2023/05/04 01:17:07;;;;;;;6.15;3.25;;;;;;;;;;5075984;28;20276;-47
2023/05/04 01:19:35;;;;;;;7.95;3.97;;;;;;;;;;5093999;28;20210;-51
2023/05/04 01:22:02;;;;;;;4.75;3.25;;;;;;;;;;5092529;28;20281;-50
2023/05/04 01:24:30;;;;;;;4.20;2.53;;;;;;;;;;5093502;28;20198;-50
2023/05/04 01:27:05;;;;;;;2.38;1.48;;;;;;;;;;5092628;28;20203;-49
2023/05/04 01:29:47;;;;;;;4.55;2.15;;;;;;;;;;5092643;28;20221;-50
2023/05/04 01:32:17;;;;;;;3.60;1.80;;;;;;;;;;5092437;28;20194;-47
2023/05/04 01:34:44;;;;;;;2.58;1.98;;;;;;;;;;5093843;28;20199;-46
2023/05/04 01:37:11;;;;;;;3.85;1.95;;;;;;;;;;5093354;28;20199;-54
2023/05/04 01:39:39;;;;;;;3.95;2.00;;;;;;;;;;5092399;28;20238;-50
2023/05/04 01:42:06;;;;;;;3.30;2.00;;;;;;;;;;5093698;28;20297;-50
2023/05/04 01:44:33;;;;;;;2.50;1.73;;;;;;;;;;5093818;28;20234;-46
2023/05/04 01:47:00;;;;;;;3.88;2.38;;;;;;;;;;5092257;28;20202;-48
2023/05/04 01:49:27;;;;;;;3.13;1.92;;;;;;;;;;5092424;28;20230;-48
2023/05/04 01:51:54;;;;;;;4.22;2.17;;;;;;;;;;5093584;28;20576;-50
2023/05/04 01:54:24;;;;;;;2.35;1.92;;;;;;;;;;5093473;28;20214;-50
2023/05/04 01:56:51;;;;;;;3.40;1.98;;;;;;;;;;5093401;28;20206;-50
2023/05/04 01:59:18;;;;;;;3.80;2.00;;;;;;;;;;5092104;28;20198;-50
2023/05/04 02:01:45;;;;;;;3.40;1.92;;;;;;;;;;5093344;28;20206;-50
2023/05/04 02:04:13;;;;;;;3.83;2.03;;;;;;;;;;5092211;28;20194;-50
2023/05/04 02:06:40;;;;;;;4.45;1.80;;;;;;;;;;5093262;28;20209;-50
2023/05/04 02:09:07;;;;;;;4.70;1.63;;;;;;;;;;5091936;28;20226;-50
2023/05/04 02:11:34;;;;;;;3.85;2.10;;;;;;;;;;5093250;28;20538;-49
2023/05/04 02:14:01;;;;;;;3.45;1.70;;;;;;;;;;5093549;28;20198;-49
2023/05/04 02:16:28;;;;;;;3.65;2.10;;;;;;;;;;5093403;28;20202;-51
2023/05/04 02:18:56;;;;;;;2.30;1.70;;;;;;;;;;5092961;28;20203;-50
2023/05/04 02:21:23;;;;;;;5.60;2.08;;;;;;;;;;5091990;28;20195;-50
2023/05/04 02:23:50;;;;;;;3.03;1.80;;;;;;;;;;5091969;28;20210;-52
2023/05/04 02:26:17;;;;;;;3.72;2.00;;;;;;;;;;5092818;28;20207;-50
2023/05/04 02:28:44;;;;;;;2.65;1.85;;;;;;;;;;5091786;28;20295;-48
2023/05/04 02:31:11;;;;;;;3.00;1.73;;;;;;;;;;5091817;28;20201;-48
2023/05/04 02:33:39;;;;;;;4.83;2.13;;;;;;;;;;5092224;28;20206;-51
2023/05/04 02:36:07;;;;;;;4.17;1.93;;;;;;;;;;5096608;28;20643;-51
2023/05/04 02:38:35;;;;;;;3.50;1.90;;;;;;;;;;5096527;28;20198;-50
2023/05/04 02:41:02;;;;;;;3.65;2.13;;;;;;;;;;5096908;28;20775;-47
2023/05/04 02:43:30;;;;;;;2.67;1.67;;;;;;;;;;5096647;28;20198;-49
2023/05/04 02:45:58;;;;;;;2.70;1.65;;;;;;;;;;5095246;28;20648;-47
2023/05/04 02:48:25;;;;;;;2.67;1.92;;;;;;;;;;5096376;28;20231;-48
2023/05/04 02:50:52;;;;;;;3.92;2.08;;;;;;;;;;5095221;28;20209;-50
2023/05/04 02:53:20;;;;;;;2.42;1.77;;;;;;;;;;5095359;28;20209;-48
2023/05/04 02:55:47;;;;;;;2.70;1.50;;;;;;;;;;5096252;28;20210;-49
2023/05/04 02:58:14;;;;;;;2.55;1.63;;;;;;;;;;5096278;28;20663;-49
2023/05/04 03:00:41;;;;;;;2.93;1.40;;;;;;;;;;5096418;28;20195;-49
2023/05/04 03:03:08;;;;;;;3.97;2.25;;;;;;;;;;5096271;28;20202;-49
2023/05/04 03:05:35;;;;;;;4.43;2.40;;;;;;;;;;5096065;28;20260;-49
2023/05/04 03:08:03;;;;;;;4.33;2.00;;;;;;;;;;5094815;28;20644;-50
2023/05/04 03:10:30;;;;;;;2.88;1.90;;;;;;;;;;5095027;28;20213;-49
2023/05/04 03:13:02;;;;;;;3.92;2.10;;;;;;;;;;5096119;28;20194;-49
2023/05/04 03:15:29;;;;;;;3.43;2.30;;;;;;;;;;5096132;28;20214;-48
2023/05/04 03:17:57;;;;;;;5.33;2.50;;;;;;;;;;5094676;28;20203;-49
2023/05/04 03:20:24;;;;;;;3.60;2.20;;;;;;;;;;5094576;28;20207;-48
2023/05/04 03:22:51;;;;;;;5.43;2.20;;;;;;;;;;5094804;28;20251;-51
2023/05/04 03:25:18;;;;;;;4.40;2.70;;;;;;;;;;5094921;28;20207;-49
2023/05/04 03:27:46;;;;;;;7.43;2.47;;;;;;;;;;5096489;28;20210;-49
2023/05/04 03:30:13;;;;;;;4.53;2.38;;;;;;;;;;5092279;28;20223;-48
2023/05/04 03:32:41;;;;;;;4.40;2.20;;;;;;;;;;5116113;27;20607;-54
2023/05/04 03:35:08;;;;;;;3.23;2.23;;;;;;;;;;5089883;28;20559;-50
2023/05/04 03:37:36;;;;;;;3.70;2.33;;;;;;;;;;5093150;28;20202;-47
2023/05/04 03:40:03;;;;;;;4.72;2.38;;;;;;;;;;5089919;28;20251;-47
2023/05/04 03:42:31;;;;;;;4.32;2.25;;;;;;;;;;5094904;28;20199;-48
2023/05/04 03:44:58;;;;;;;3.13;2.22;;;;;;;;;;5092335;28;20290;-50
2023/05/04 03:47:29;;;;;;;4.25;2.25;;;;;;;;;;5091213;28;20190;-49
2023/05/04 03:49:56;;;;;;;4.95;2.58;;;;;;;;;;5093697;28;20221;-53
2023/05/04 03:52:23;;;;;;;5.93;2.30;;;;;;;;;;5094821;28;20198;-49
2023/05/04 03:54:50;;;;;;;3.08;2.15;;;;;;;;;;5093674;28;20207;-49
2023/05/04 03:57:18;;;;;;;6.03;2.80;;;;;;;;;;5088209;28;20218;-51
2023/05/04 03:59:45;;;;;;;4.88;2.15;;;;;;;;;;5091622;28;20226;-50
2023/05/04 04:02:13;;;;;;;3.15;2.28;;;;;;;;;;5090107;28;20223;-48
2023/05/04 04:04:40;;;;;;;5.70;2.55;;;;;;;;;;5089991;28;21798;-47
2023/05/04 04:07:09;;;;;;;4.90;2.45;;;;;;;;;;5120060;27;20233;-49
2023/05/04 04:09:36;;;;;;;2.80;2.05;;;;;;;;;;5092916;28;20245;-51
2023/05/04 04:12:03;;;;;;;4.70;2.58;;;;;;;;;;5093647;28;20272;-48
2023/05/04 04:14:30;;;;;;;3.15;1.92;;;;;;;;;;5094129;28;20226;-48
2023/05/04 04:16:57;;;;;;;4.13;1.95;;;;;;;;;;5094534;28;20627;-49
2023/05/04 04:19:24;;;;;;;4.28;2.13;;;;;;;;;;5085830;28;20215;-48
2023/05/04 04:21:51;;;;;;;4.90;1.90;;;;;;;;;;5074184;28;20233;-49
2023/05/04 04:24:18;;;;;;;3.47;2.15;;;;;;;;;;5073968;28;20690;-50
2023/05/04 04:26:46;;;;;;;4.80;2.63;;;;;;;;;;5073590;28;20223;-50
2023/05/04 04:29:13;;;;;;;6.22;2.40;;;;;;;;;;5074020;28;20239;-49
2023/05/04 04:31:40;;;;;;;4.95;1.88;;;;;;;;;;5077289;28;20708;-49
2023/05/04 04:34:07;;;;;;;4.60;2.03;;;;;;;;;;5092965;28;20250;-48
2023/05/04 04:36:35;;;;;;;5.30;2.42;;;;;;;;;;5093811;28;20234;-49
2023/05/04 04:39:04;;;;;;;2.50;1.67;;;;;;;;;;5093945;28;20238;-49
2023/05/04 04:41:32;;;;;;;2.92;2.15;;;;;;;;;;5093175;28;20273;-49
2023/05/04 04:43:59;;;;;;;4.32;2.28;;;;;;;;;;5093478;28;20215;-49
2023/05/04 04:46:26;;;;;;;1.95;1.65;;;;;;;;;;5093342;28;20226;-49
2023/05/04 04:48:54;;;;;;;2.55;1.70;;;;;;;;;;5091617;28;20603;-50
2023/05/04 04:51:21;;;;;;;5.10;2.40;;;;;;;;;;5088074;28;20227;-52
2023/05/04 04:53:50;;;;;;;3.13;2.03;;;;;;;;;;5088784;28;20242;-50
2023/05/04 04:56:17;;;;;;;4.00;2.15;;;;;;;;;;5088743;28;20222;-49
2023/05/04 04:58:45;;;;;;;2.63;1.88;;;;;;;;;;5086544;28;20703;-49
2023/05/04 05:01:16;;;;;;;2.50;1.77;;;;;;;;;;5090961;28;20215;-48
2023/05/04 05:03:44;;;;;;;5.00;2.00;;;;;;;;;;5092927;28;20218;-52
2023/05/04 05:06:12;;;;;;;3.15;1.67;;;;;;;;;;5093626;28;20698;-49
2023/05/04 05:08:39;;;;;;;4.10;1.98;;;;;;;;;;5093060;28;20234;-48
2023/05/04 05:11:07;;;;;;;3.35;1.90;;;;;;;;;;5093463;28;20229;-49
2023/05/04 05:13:33;;;;;;;3.75;1.48;;;;;;;;;;5093153;28;20229;-51
2023/05/04 05:16:01;;;;;;;3.63;2.10;;;;;;;;;;5111647;28;20307;-52
2023/05/04 05:18:28;;;;;;;3.58;1.83;;;;;;;;;;5091958;28;20226;-49
2023/05/04 05:20:55;;;;;;;5.32;2.00;;;;;;;;;;5089852;28;20218;-47
2023/05/04 05:23:22;;;;;;;3.13;1.67;;;;;;;;;;5091770;28;20191;-52
2023/05/04 05:25:50;;;;;;;3.13;1.98;;;;;;;;;;5091005;28;20202;-50
2023/05/04 05:28:18;;;;;;;3.63;2.08;;;;;;;;;;5092328;28;20224;-48
2023/05/04 05:30:45;;;;;;;2.80;1.70;;;;;;;;;;5093054;28;20222;-52
2023/05/04 05:33:12;;;;;;;2.78;1.55;;;;;;;;;;5092841;28;20281;-48
2023/05/04 05:35:40;;;;;;;3.35;2.20;;;;;;;;;;5093275;28;20213;-49
2023/05/04 05:38:07;;;;;;;3.55;1.60;;;;;;;;;;5093604;28;20256;-48
2023/05/04 05:40:35;;;;;;;2.70;1.60;;;;;;;;;;5093343;28;20238;-49
2023/05/04 05:43:04;;;;;;;2.22;1.50;;;;;;;;;;5093828;28;20203;-48
2023/05/04 05:45:31;;;;;;;2.58;1.50;;;;;;;;;;5093579;28;20198;-48
2023/05/04 05:47:58;;;;;;;3.35;1.63;;;;;;;;;;5093587;28;20240;-48
2023/05/04 05:50:26;;;;;;;3.63;1.70;;;;;;;;;;5093614;28;20226;-48
2023/05/04 05:52:53;;;;;;;2.78;1.63;;;;;;;;;;5093732;28;20198;-48
2023/05/04 05:55:20;;;;;;;3.08;1.30;;;;;;;;;;5093663;28;20209;-49
2023/05/04 05:57:47;;;;;;;3.47;1.30;;;;;;;;;;5093621;28;20210;-47
2023/05/04 06:00:15;;;;;;;3.90;1.70;;;;;;;;;;5093652;28;20211;-48
2023/05/04 06:02:42;;;;;;;2.03;1.30;;;;;;;;;;5093301;28;20201;-49
2023/05/04 06:05:10;;;;;;;1.55;0.95;;;;;;;;;;5093716;28;20259;-48
2023/05/04 06:07:37;;;;;;;0.90;0.80;;;;;;;;;;5093349;28;20260;-48
2023/05/04 06:10:05;;;;;;;0.98;0.88;;;;;;;;;;5096473;28;20230;-50
2023/05/04 06:12:32;;;;;;;1.05;0.95;;;;;;;;;;5097704;28;20202;-47
2023/05/04 06:15:00;;;;;;;1.42;1.10;;;;;;;;;;5097360;28;20203;-48
2023/05/04 06:17:27;;;;;;;1.23;0.93;;;;;;;;;;5097406;28;20244;-49
2023/05/04 06:19:54;;;;;;;1.15;0.88;;;;;;;;;;5097482;28;20209;-48
2023/05/04 06:22:21;;;;;;;2.10;1.02;;;;;;;;;;5097421;28;20590;-49
2023/05/04 06:24:49;;;;;;;1.70;0.90;;;;;;;;;;5097409;28;20199;-49
2023/05/04 06:27:15;;;;;;;1.65;1.10;;;;;;;;;;5097164;28;20206;-49
2023/05/04 06:29:43;;;;;;;1.42;1.15;;;;;;;;;;5096992;28;20222;-50
2023/05/04 06:32:10;;;;;;;0.90;0.80;;;;;;;;;;5097464;28;20600;-49
2023/05/04 06:34:37;;;;;;;1.20;0.80;;;;;;;;;;5097470;28;20202;-48
2023/05/04 06:37:04;;;;;;;1.30;1.00;;;;;;;;;;5096979;28;20287;-48
2023/05/04 06:39:32;;;;;;;1.63;0.90;;;;;;;;;;5097031;28;20242;-48
2023/05/04 06:41:59;;;;;;;2.13;0.95;;;;;;;;;;5097208;28;20543;-49
2023/05/04 06:44:27;;;;;;;1.55;0.88;;;;;;;;;;5095651;28;20574;-49
2023/05/04 06:46:54;;;;;;;1.27;0.80;;;;;;;;;;5097046;28;20195;-48
2023/05/04 06:49:21;;;;;;;1.55;0.90;;;;;;;;;;5096843;28;20378;-47
2023/05/04 06:51:48;;;;;;;1.17;0.90;;;;;;;;;;5096673;28;20224;-48
2023/05/04 06:54:16;;;;;;;1.50;0.80;;;;;;;;;;5096770;28;20194;-48
2023/05/04 06:56:43;;;;;;;2.00;0.80;;;;;;;;;;5096678;28;20203;-48
2023/05/04 06:59:10;;;;;;;1.20;0.82;;;;;;;;;;5096494;28;20679;-49
2023/05/04 07:01:37;;;;;;;1.00;0.70;;;;;;;;;;5097132;28;20199;-48
2023/05/04 07:04:05;;;;;;;0.85;0.52;;;;;;;;;;5096273;28;20203;-50
2023/05/04 07:06:32;;;;;;;0.88;0.70;;;;;;;;;;5096606;28;20562;-48
2023/05/04 07:09:00;;;;;;;2.00;0.60;;;;;;;;;;5096565;28;20207;-48
2023/05/04 07:11:27;;;;;;;1.25;0.70;;;;;;;;;;5096294;28;20195;-49
2023/05/04 07:13:54;;;;;;;0.65;0.60;;;;;;;;;;5096322;28;20229;-50
2023/05/04 07:16:21;;;;;;;0.75;0.65;;;;;;;;;;5096458;28;20201;-48
2023/05/04 07:18:49;;;;;;;1.08;0.75;;;;;;;;;;5096341;28;20209;-50
2023/05/04 07:21:16;;;;;;;1.17;0.63;;;;;;;;;;5095137;28;20202;-51
2023/05/04 07:23:54;;;;;;;1.17;0.63;;;;;;;;;;5096079;28;20202;-49
2023/05/04 07:26:22;;;;;;;1.38;0.50;;;;;;;;;;5096226;28;20207;-51
2023/05/04 07:28:49;;;;;;;0.50;0.40;;;;;;;;;;5096303;28;20206;-49
2023/05/04 07:31:16;;;;;;;0.40;0.40;;;;;;;;;;5096044;28;20250;-47
2023/05/04 07:33:44;;;;;;;0.50;0.50;;;;;;;;;;5095911;28;20210;-48
2023/05/04 07:36:11;;;;;;;0.50;0.40;;;;;;;;;;5096083;28;20202;-48
2023/05/04 07:38:38;;;;;;;0.80;0.60;;;;;;;;;;5095777;28;20256;-49
2023/05/04 07:41:06;;;;;;;0.80;0.70;;;;;;;;;;5095550;28;20284;-48
2023/05/04 07:43:33;;;;;;;0.90;0.50;;;;;;;;;;5095729;28;20203;-47
2023/05/04 07:46:00;;;;;;;1.25;0.60;;;;;;;;;;5095606;28;20198;-48
2023/05/04 07:48:27;;;;;;;0.50;0.45;;;;;;;;;;5095677;28;20195;-48
2023/05/04 07:50:54;;;;;;;0.65;0.40;;;;;;;;;;5095431;28;20226;-50
2023/05/04 07:53:24;;;;;;;0.95;0.70;;;;;;;;;;5095417;28;20206;-49
2023/05/04 07:55:53;;;;;;;1.27;0.85;;;;;;;;;;5095366;28;20206;-49
2023/05/04 07:58:20;;;;;;;0.50;0.50;;;;;;;;;;5095422;28;20231;-49
2023/05/04 08:00:47;;;;;;;1.10;0.70;;;;;;;;;;5095325;28;20724;-48
2023/05/04 08:03:15;;;;;;;0.88;0.60;;;;;;;;;;5095645;28;20559;-49
2023/05/04 08:05:42;;;;;;;0.60;0.57;;;;;;;;;;5094922;28;20206;-49
2023/05/04 08:08:09;;;;;;;2.35;0.90;;;;;;;;;;5095160;28;20211;-48
2023/05/04 08:10:37;;;;;;;0.60;0.60;;;;;;;;;;5095294;28;20577;-48
2023/05/04 08:13:04;;;;;;;1.45;0.80;;;;;;;;;;5095119;28;20213;-48
2023/05/04 08:15:31;;;;;;;1.08;0.70;;;;;;;;;;5095574;28;20198;-48
2023/05/04 08:17:59;;;;;;;0.55;0.55;;;;;;;;;;5095127;28;20206;-48
2023/05/04 08:20:26;;;;;;;0.60;0.47;;;;;;;;;;5094802;28;20211;-48
2023/05/04 08:22:53;;;;;;;1.70;0.70;;;;;;;;;;5095248;28;20207;-53
2023/05/04 08:25:21;;;;;;;1.10;0.60;;;;;;;;;;5094743;28;20248;-48
2023/05/04 08:27:48;;;;;;;1.00;0.60;;;;;;;;;;5095074;28;20209;-48
2023/05/04 08:30:16;;;;;;;0.68;0.50;;;;;;;;;;5094666;28;20714;-50
2023/05/04 08:32:43;;;;;;;0.60;0.55;;;;;;;;;;5094491;28;20199;-52
2023/05/04 08:35:10;;;;;;;2.47;0.57;;;;;;;;;;5094374;28;20195;-49
2023/05/04 08:37:38;;;;;;;0.43;0.43;;;;;;;;;;5094875;28;20203;-47
2023/05/04 08:40:05;;;;;;;0.88;0.70;;;;;;;;;;5094679;28;20230;-48
2023/05/04 08:42:33;;;;;;;0.73;0.60;;;;;;;;;;5093311;28;20549;-50
2023/05/04 08:45:00;;;;;;;0.68;0.50;;;;;;;;;;5094589;28;20306;-50
2023/05/04 08:47:28;;;;;;;0.60;0.60;;;;;;;;;;5094394;28;20554;-48
2023/05/04 08:49:56;;;;;;;0.52;0.52;;;;;;;;;;5094384;28;20683;-49
2023/05/04 08:52:25;;;;;;;0.60;0.60;;;;;;;;;;5094614;28;20206;-47
2023/05/04 08:54:56;;;;;;;0.60;0.60;;;;;;;;;;5094250;28;20209;-47
2023/05/04 08:57:24;;;;;;;0.93;0.40;;;;;;;;;;5094290;28;20644;-48
2023/05/04 08:59:52;;;;;;;0.68;0.60;;;;;;;;;;5094346;28;20213;-49
2023/05/04 09:02:23;;;;;;;1.00;0.73;;;;;;;;;;5094485;28;20203;-48
2023/05/04 09:04:51;;;;;;;1.73;0.50;;;;;;;;;;5094387;28;20289;-49
2023/05/04 09:07:20;;;;;;;0.70;0.60;;;;;;;;;;5094004;28;20198;-49
2023/05/04 09:09:49;;;;;;;0.40;0.40;;;;;;;;;;5094175;28;20219;-48
2023/05/04 09:12:17;;;;;;;0.52;0.50;;;;;;;;;;5094028;28;20209;-49
2023/05/04 09:14:45;;;;;;;0.75;0.52;;;;;;;;;;5093804;28;20226;-47
2023/05/04 09:17:16;;;;;;;0.88;0.60;;;;;;;;;;5094147;28;20203;-48
2023/05/04 09:19:43;;;;;;;1.42;0.57;;;;;;;;;;5094362;28;20203;-48
2023/05/04 09:22:15;;;;;;;0.63;0.50;;;;;;;;;;5093910;28;20202;-48
2023/05/04 09:24:43;;;;;;;0.52;0.50;;;;;;;;;;5093847;28;20226;-49
2023/05/04 09:27:11;;;;;;;0.70;0.50;;;;;;;;;;5093774;28;20198;-48
2023/05/04 09:29:41;;;;;;;0.77;0.60;;;;;;;;;;5093926;28;20203;-49
2023/05/04 09:32:14;;;;;;;0.60;0.40;;;;;;;;;;5093857;28;20206;-49
2023/05/04 09:34:48;;;;;;;2.58;0.80;;;;;;;;;;5094072;28;20396;-48
2023/05/04 09:37:17;;;;;;;1.08;0.65;;;;;;;;;;5093811;28;20569;-48
2023/05/04 09:39:54;;;;;;;1.42;0.80;;;;;;;;;;5093598;28;20780;-48
2023/05/04 09:42:23;;;;;;;2.05;1.00;;;;;;;;;;5093656;28;20206;-50
2023/05/04 09:45:03;;;;;;;0.85;0.60;;;;;;;;;;5092117;28;20199;-47
2023/05/04 09:47:33;;;;;;;0.40;0.40;;;;;;;;;;5093537;28;20213;-47
2023/05/04 09:50:14;;;;;;;0.70;0.55;;;;;;;;;;5093359;28;20222;-49
2023/05/04 09:52:46;;;;;;;0.77;0.70;;;;;;;;;;5093781;28;20264;-49
2023/05/04 09:55:15;;;;;;;0.70;0.50;;;;;;;;;;5093495;28;20257;-48
2023/05/04 09:57:43;;;;;;;0.43;0.40;;;;;;;;;;5093349;28;20210;-49
2023/05/04 10:00:16;;;;;;;0.75;0.60;;;;;;;;;;5093643;28;20281;-50
2023/05/04 10:02:45;;;;;;;0.60;0.60;;;;;;;;;;5093805;28;20203;-48
2023/05/04 10:05:17;;;;;;;0.82;0.45;;;;;;;;;;5093371;28;20206;-49
2023/05/04 10:07:45;;;;;;;1.48;0.93;;;;;;;;;;5093330;28;20205;-47
2023/05/04 10:10:13;;;;;;;0.80;0.70;;;;;;;;;;5092998;28;20229;-50
2023/05/04 10:12:43;;;;;;;0.70;0.50;;;;;;;;;;5093291;28;20211;-51
2023/05/04 10:15:11;;;;;;;1.20;0.50;;;;;;;;;;5093497;28;20263;-47
2023/05/04 10:18:17;;;;;;;0.55;0.55;;;;;;;;;;5093513;28;20564;-48
2023/05/04 10:21:03;;;;;;;1.35;0.75;;;;;;;;;;5089108;28;20206;-48
2023/05/04 10:24:01;;;;;;;0.63;0.52;;;;;;;;;;5093577;28;20198;-47
2023/05/04 10:26:44;;;;;;;0.60;0.60;;;;;;;;;;5092113;28;20206;-48
2023/05/04 10:29:12;;;;;;;0.85;0.57;;;;;;;;;;5092187;28;20206;-49
2023/05/04 10:31:41;;;;;;;0.80;0.60;;;;;;;;;;5091915;28;20226;-48
2023/05/04 10:34:09;;;;;;;0.60;0.60;;;;;;;;;;5093030;28;20659;-48
2023/05/04 10:36:37;;;;;;;0.75;0.63;;;;;;;;;;5093445;28;20209;-48
2023/05/04 10:39:19;;;;;;;0.63;0.63;;;;;;;;;;5093181;28;20210;-49
2023/05/04 10:42:06;;;;;;;0.85;0.80;;;;;;;;;;5091851;28;20535;-48
2023/05/04 10:44:56;;;;;;;2.70;1.00;;;;;;;;;;5093274;28;20209;-51
2023/05/04 10:47:33;;;;;;;1.40;0.70;;;;;;;;;;5093336;28;20260;-48
2023/05/04 10:50:04;;;;;;;0.65;0.60;;;;;;;;;;5092879;28;20206;-49
2023/05/04 10:52:32;;;;;;;1.48;0.77;;;;;;;;;;5092991;28;20230;-49
2023/05/04 10:55:00;;;;;;;0.88;0.70;;;;;;;;;;5094218;28;20202;-49
2023/05/04 10:57:28;;;;;;;1.08;0.47;;;;;;;;;;5096861;28;20255;-48
2023/05/04 10:59:57;;;;;;;1.15;0.68;;;;;;;;;;5095877;28;20209;-49
2023/05/04 11:02:25;;;;;;;0.73;0.57;;;;;;;;;;5096499;28;20678;-48
2023/05/04 11:05:00;;;;;;;1.00;0.70;;;;;;;;;;5096471;28;20198;-52
2023/05/04 11:07:37;;;;;;;1.48;0.80;;;;;;;;;;5096684;28;20198;-48
2023/05/04 11:10:07;;;;;;;1.30;0.80;;;;;;;;;;5096281;28;20210;-51
2023/05/04 11:12:36;;;;;;;0.90;0.60;;;;;;;;;;5096247;28;20734;-49
2023/05/04 11:15:09;;;;;;;1.05;0.80;;;;;;;;;;5096410;28;20210;-48
2023/05/04 11:17:49;;;;;;;0.70;0.60;;;;;;;;;;5096368;28;20222;-49
2023/05/04 11:20:19;;;;;;;1.35;0.77;;;;;;;;;;5096342;28;20210;-51
2023/05/04 11:22:47;;;;;;;0.60;0.57;;;;;;;;;;5096202;28;20686;-49
2023/05/04 11:25:15;;;;;;;0.65;0.65;;;;;;;;;;5096392;28;20206;-49
2023/05/04 11:27:43;;;;;;;1.25;0.77;;;;;;;;;;5096220;28;20198;-49
2023/05/04 11:30:10;;;;;;;0.95;0.70;;;;;;;;;;5095886;28;20210;-48
2023/05/04 11:32:42;;;;;;;1.05;0.60;;;;;;;;;;5096437;28;20225;-48
2023/05/04 11:35:15;;;;;;;0.73;0.70;;;;;;;;;;5095920;28;20207;-50
2023/05/04 11:37:43;;;;;;;0.93;0.70;;;;;;;;;;5096389;28;20195;-48
2023/05/04 11:40:14;;;;;;;0.90;0.70;;;;;;;;;;5077653;28;20235;-49
2023/05/04 11:42:41;;;;;;;1.15;0.63;;;;;;;;;;5074973;28;20223;-48
2023/05/04 11:45:13;;;;;;;1.77;0.80;;;;;;;;;;5075922;28;20218;-50
2023/05/04 11:47:40;;;;;;;0.77;0.60;;;;;;;;;;5089144;28;20215;-53
2023/05/04 11:50:09;;;;;;;0.90;0.80;;;;;;;;;;5094187;28;20234;-54
2023/05/04 11:52:39;;;;;;;1.33;0.82;;;;;;;;;;5095095;28;20222;-55
2023/05/04 11:55:10;;;;;;;0.73;0.60;;;;;;;;;;5085571;28;20222;-54
2023/05/04 11:57:38;;;;;;;0.73;0.63;;;;;;;;;;5094950;28;20197;-51
2023/05/04 12:00:07;;;;;;;0.95;0.60;;;;;;;;;;5095009;28;20195;-55
2023/05/04 12:02:34;;;;;;;1.05;0.80;;;;;;;;;;5094950;28;20292;-52
2023/05/04 12:05:02;;;;;;;0.60;0.60;;;;;;;;;;5094940;28;20760;-50
2023/05/04 12:07:35;;;;;;;1.25;0.60;;;;;;;;;;5094507;28;20221;-50
2023/05/04 12:10:03;;;;;;;0.70;0.70;;;;;;;;;;5094920;28;20666;-50
2023/05/04 12:12:34;;;;;;;0.50;0.50;;;;;;;;;;5094955;28;20684;-51
2023/05/04 12:15:02;;;;;;;0.70;0.60;;;;;;;;;;5095219;28;20256;-49
2023/05/04 12:17:40;;;;;;;0.80;0.60;;;;;;;;;;5095236;28;20206;-49
2023/05/04 12:20:07;;;;;;;1.02;0.70;;;;;;;;;;5095055;28;20209;-48
2023/05/04 12:22:35;;;;;;;1.60;0.80;;;;;;;;;;5094706;28;20222;-49
2023/05/04 12:25:02;;;;;;;1.08;0.55;;;;;;;;;;5094931;28;20203;-49
2023/05/04 12:27:29;;;;;;;1.45;0.82;;;;;;;;;;5094716;28;20198;-50
2023/05/04 12:29:57;;;;;;;0.70;0.63;;;;;;;;;;5094277;28;20651;-50
2023/05/04 12:32:23;;;;;;;0.85;0.75;;;;;;;;;;5094351;28;20267;-51
2023/05/04 12:34:51;;;;;;;1.23;0.68;;;;;;;;;;5090564;28;20233;-50
2023/05/04 12:37:18;;;;;;;0.65;0.60;;;;;;;;;;5082937;28;20223;-51
2023/05/04 12:39:45;;;;;;;0.60;0.60;;;;;;;;;;5084313;28;20279;-50
2023/05/04 12:42:12;;;;;;;0.85;0.68;;;;;;;;;;5084900;28;20314;-50
2023/05/04 12:44:39;;;;;;;0.77;0.47;;;;;;;;;;5093319;28;20694;-51
2023/05/04 12:47:06;;;;;;;0.82;0.47;;;;;;;;;;5093171;28;20226;-52
2023/05/04 12:49:34;;;;;;;0.82;0.60;;;;;;;;;;5080889;28;20215;-50
2023/05/04 12:52:01;;;;;;;0.50;0.45;;;;;;;;;;5092865;28;20245;-50
2023/05/04 12:54:28;;;;;;;0.50;0.50;;;;;;;;;;5092864;28;20214;-50
2023/05/04 12:56:55;;;;;;;1.40;0.70;;;;;;;;;;5093275;28;20590;-50
2023/05/04 12:59:23;;;;;;;1.25;0.50;;;;;;;;;;5093519;28;20223;-51
2023/05/04 13:01:51;;;;;;;0.43;0.43;;;;;;;;;;5093022;28;20774;-49
2023/05/04 13:04:18;;;;;;;0.85;0.70;;;;;;;;;;5093340;28;20229;-54
2023/05/04 13:06:45;;;;;;;0.60;0.47;;;;;;;;;;5092106;28;20214;-50
2023/05/04 13:09:14;;;;;;;1.20;0.68;;;;;;;;;;5092819;28;20618;-50
2023/05/04 13:11:41;;;;;;;0.60;0.60;;;;;;;;;;5089829;28;20230;-48
2023/05/04 13:14:09;;;;;;;0.43;0.43;;;;;;;;;;5092770;28;20218;-50
2023/05/04 13:16:36;;;;;;;0.70;0.52;;;;;;;;;;5092273;28;20289;-52
2023/05/04 13:19:03;;;;;;;0.60;0.43;;;;;;;;;;5092154;28;20223;-50
2023/05/04 13:21:30;;;;;;;1.30;0.73;;;;;;;;;;5091712;28;20225;-51
2023/05/04 13:23:59;;;;;;;0.60;0.50;;;;;;;;;;5092594;28;20218;-51
2023/05/04 13:26:26;;;;;;;1.05;0.60;;;;;;;;;;5092219;28;20218;-50
2023/05/04 13:28:53;;;;;;;0.52;0.50;;;;;;;;;;5091471;28;20275;-50
2023/05/04 13:31:20;;;;;;;0.70;0.50;;;;;;;;;;5092171;28;20210;-52
2023/05/04 13:33:49;;;;;;;0.95;0.60;;;;;;;;;;5092656;28;20219;-50
2023/05/04 13:36:16;;;;;;;0.90;0.50;;;;;;;;;;5091836;28;20241;-51
2023/05/04 13:38:43;;;;;;;1.13;0.77;;;;;;;;;;5092130;28;20410;-52
2023/05/04 13:41:10;;;;;;;0.88;0.70;;;;;;;;;;5092066;28;20576;-48
2023/05/04 13:43:38;;;;;;;0.52;0.50;;;;;;;;;;5087531;28;20279;-52
2023/05/04 13:46:05;;;;;;;0.77;0.55;;;;;;;;;;5083118;28;20713;-50
2023/05/04 13:48:32;;;;;;;1.85;0.98;;;;;;;;;;5086692;28;20222;-51
2023/05/04 13:51:02;;;;;;;1.13;0.65;;;;;;;;;;5092253;28;20756;-51
2023/05/04 13:53:29;;;;;;;0.50;0.40;;;;;;;;;;5090433;28;20219;-52
2023/05/04 13:55:56;;;;;;;2.90;0.70;;;;;;;;;;5092748;28;20218;-52
2023/05/04 13:58:24;;;;;;;0.90;0.55;;;;;;;;;;5091175;28;20225;-50
2023/05/04 14:00:51;;;;;;;1.30;0.52;;;;;;;;;;5091584;28;20261;-50
2023/05/04 14:03:18;;;;;;;0.80;0.75;;;;;;;;;;5092791;28;20223;-51
2023/05/04 14:05:45;;;;;;;0.95;0.70;;;;;;;;;;5085704;28;20721;-50
2023/05/04 14:08:12;;;;;;;0.70;0.60;;;;;;;;;;5090076;28;20237;-51
2023/05/04 14:10:40;;;;;;;1.33;0.70;;;;;;;;;;5081746;28;20223;-51
2023/05/04 14:13:07;;;;;;;1.00;0.47;;;;;;;;;;5092310;28;20248;-52
2023/05/04 14:15:35;;;;;;;0.88;0.70;;;;;;;;;;5091960;28;20222;-51
2023/05/04 14:18:02;;;;;;;2.53;0.70;;;;;;;;;;5084743;28;20462;-51
2023/05/04 14:20:30;;;;;;;1.30;0.70;;;;;;;;;;5089527;28;20233;-51
2023/05/04 14:22:58;;;;;;;0.82;0.70;;;;;;;;;;5090735;28;20596;-52
2023/05/04 14:25:25;;;;;;;1.13;0.82;;;;;;;;;;5091842;28;20219;-49
2023/05/04 14:27:52;;;;;;;1.02;0.70;;;;;;;;;;5092260;28;20223;-51
2023/05/04 14:30:20;;;;;;;1.25;0.80;;;;;;;;;;5093542;28;20222;-53
2023/05/04 14:32:51;;;;;;;0.95;0.85;;;;;;;;;;5094975;28;20234;-53
2023/05/04 14:35:19;;;;;;;1.75;0.90;;;;;;;;;;5094058;28;20222;-51
2023/05/04 14:37:48;;;;;;;1.85;0.60;;;;;;;;;;5091966;28;20223;-51
2023/05/04 14:40:15;;;;;;;0.77;0.70;;;;;;;;;;5085278;28;20288;-50
2023/05/04 14:42:43;;;;;;;0.70;0.55;;;;;;;;;;5095560;28;20229;-50
2023/05/04 14:45:10;;;;;;;1.42;0.95;;;;;;;;;;5094853;28;20756;-51
2023/05/04 14:47:38;;;;;;;1.35;0.80;;;;;;;;;;5095647;28;20874;-53
2023/05/04 14:50:05;;;;;;;0.90;0.50;;;;;;;;;;5095640;28;20313;-51